sensor_id;sensor_type;location;lat;lon;timestamp;P1;durP1;ratioP1;P2;durP2;ratioP2
25175;SDS011;13135;55.166;61.286;2023-07-02T00:01:26;5.65;;;3.10;;
25175;SDS011;13135;55.166;61.286;2023-07-02T00:04:11;3.87;;;3.00;;
25175;SDS011;13135;55.166;61.286;2023-07-02T00:06:56;5.13;;;3.00;;
25175;SDS011;13135;55.166;61.286;2023-07-02T00:09:40;5.40;;;3.40;;
25175;SDS011;13135;55.166;61.286;2023-07-02T00:12:25;7.57;;;3.13;;
25175;SDS011;13135;55.166;61.286;2023-07-02T00:15:10;7.90;;;3.17;;
25175;SDS011;13135;55.166;61.286;2023-07-02T00:17:55;4.57;;;3.10;;
25175;SDS011;13135;55.166;61.286;2023-07-02T00:20:39;5.50;;;3.13;;
25175;SDS011;13135;55.166;61.286;2023-07-02T00:23:24;5.53;;;2.90;;
25175;SDS011;13135;55.166;61.286;2023-07-02T00:26:10;5.78;;;2.90;;
25175;SDS011;13135;55.166;61.286;2023-07-02T00:28:58;4.60;;;2.93;;
25175;SDS011;13135;55.166;61.286;2023-07-02T00:31:43;5.90;;;2.67;;
25175;SDS011;13135;55.166;61.286;2023-07-02T00:34:27;3.30;;;2.73;;
25175;SDS011;13135;55.166;61.286;2023-07-02T00:37:11;5.05;;;3.08;;
25175;SDS011;13135;55.166;61.286;2023-07-02T00:39:56;4.62;;;3.00;;
25175;SDS011;13135;55.166;61.286;2023-07-02T00:42:40;4.57;;;2.83;;
25175;SDS011;13135;55.166;61.286;2023-07-02T00:45:25;4.43;;;3.10;;
25175;SDS011;13135;55.166;61.286;2023-07-02T00:48:17;7.37;;;3.28;;
25175;SDS011;13135;55.166;61.286;2023-07-02T00:51:02;7.77;;;3.00;;
25175;SDS011;13135;55.166;61.286;2023-07-02T00:53:48;4.85;;;3.15;;
25175;SDS011;13135;55.166;61.286;2023-07-02T00:56:31;3.83;;;2.83;;
25175;SDS011;13135;55.166;61.286;2023-07-02T00:59:13;4.18;;;3.25;;
25175;SDS011;13135;55.166;61.286;2023-07-02T01:01:58;7.10;;;2.80;;
25175;SDS011;13135;55.166;61.286;2023-07-02T01:04:47;6.57;;;3.10;;
25175;SDS011;13135;55.166;61.286;2023-07-02T01:07:29;7.78;;;3.00;;
25175;SDS011;13135;55.166;61.286;2023-07-02T01:10:13;4.73;;;2.60;;
25175;SDS011;13135;55.166;61.286;2023-07-02T01:13:00;4.30;;;2.83;;
25175;SDS011;13135;55.166;61.286;2023-07-02T01:15:44;3.42;;;3.10;;
25175;SDS011;13135;55.166;61.286;2023-07-02T01:18:29;11.48;;;2.92;;
25175;SDS011;13135;55.166;61.286;2023-07-02T01:21:21;7.53;;;2.80;;
25175;SDS011;13135;55.166;61.286;2023-07-02T01:24:05;3.95;;;2.58;;
25175;SDS011;13135;55.166;61.286;2023-07-02T01:26:48;6.95;;;2.70;;
25175;SDS011;13135;55.166;61.286;2023-07-02T01:29:35;5.60;;;2.90;;
25175;SDS011;13135;55.166;61.286;2023-07-02T01:32:22;6.50;;;2.70;;
25175;SDS011;13135;55.166;61.286;2023-07-02T01:35:06;4.25;;;2.83;;
25175;SDS011;13135;55.166;61.286;2023-07-02T01:37:51;4.43;;;2.78;;
25175;SDS011;13135;55.166;61.286;2023-07-02T01:40:37;3.62;;;2.42;;
25175;SDS011;13135;55.166;61.286;2023-07-02T01:43:21;7.35;;;2.90;;
25175;SDS011;13135;55.166;61.286;2023-07-02T01:46:06;4.20;;;2.78;;
25175;SDS011;13135;55.166;61.286;2023-07-02T01:48:52;3.62;;;2.83;;
25175;SDS011;13135;55.166;61.286;2023-07-02T01:51:38;2.72;;;2.50;;
25175;SDS011;13135;55.166;61.286;2023-07-02T01:54:26;6.10;;;2.92;;
25175;SDS011;13135;55.166;61.286;2023-07-02T01:57:07;4.10;;;2.97;;
25175;SDS011;13135;55.166;61.286;2023-07-02T01:59:51;4.37;;;3.00;;
25175;SDS011;13135;55.166;61.286;2023-07-02T02:02:37;5.62;;;2.87;;
25175;SDS011;13135;55.166;61.286;2023-07-02T02:05:21;4.35;;;2.55;;
25175;SDS011;13135;55.166;61.286;2023-07-02T02:08:06;4.18;;;2.75;;
25175;SDS011;13135;55.166;61.286;2023-07-02T02:10:50;4.57;;;2.90;;
25175;SDS011;13135;55.166;61.286;2023-07-02T02:13:37;4.32;;;2.90;;
25175;SDS011;13135;55.166;61.286;2023-07-02T02:16:22;4.55;;;2.60;;
25175;SDS011;13135;55.166;61.286;2023-07-02T02:19:09;6.30;;;3.20;;
25175;SDS011;13135;55.166;61.286;2023-07-02T02:21:54;5.50;;;2.95;;
25175;SDS011;13135;55.166;61.286;2023-07-02T02:24:39;7.95;;;2.80;;
25175;SDS011;13135;55.166;61.286;2023-07-02T02:27:22;6.45;;;3.22;;
25175;SDS011;13135;55.166;61.286;2023-07-02T02:30:08;6.43;;;3.20;;
25175;SDS011;13135;55.166;61.286;2023-07-02T02:32:53;5.62;;;3.40;;
25175;SDS011;13135;55.166;61.286;2023-07-02T02:35:38;8.15;;;4.50;;
25175;SDS011;13135;55.166;61.286;2023-07-02T02:38:25;4.20;;;3.10;;
25175;SDS011;13135;55.166;61.286;2023-07-02T02:41:10;4.25;;;3.17;;
25175;SDS011;13135;55.166;61.286;2023-07-02T02:43:54;7.03;;;3.00;;
25175;SDS011;13135;55.166;61.286;2023-07-02T02:46:38;4.28;;;3.03;;
25175;SDS011;13135;55.166;61.286;2023-07-02T02:49:23;6.93;;;2.80;;
25175;SDS011;13135;55.166;61.286;2023-07-02T02:52:08;4.32;;;2.87;;
25175;SDS011;13135;55.166;61.286;2023-07-02T02:54:53;3.53;;;2.92;;
25175;SDS011;13135;55.166;61.286;2023-07-02T02:57:37;3.75;;;2.47;;
25175;SDS011;13135;55.166;61.286;2023-07-02T03:00:21;6.82;;;2.70;;
25175;SDS011;13135;55.166;61.286;2023-07-02T03:03:08;4.53;;;2.70;;
25175;SDS011;13135;55.166;61.286;2023-07-02T03:05:55;3.95;;;2.70;;
25175;SDS011;13135;55.166;61.286;2023-07-02T03:08:41;3.50;;;2.53;;
25175;SDS011;13135;55.166;61.286;2023-07-02T03:11:25;2.90;;;2.50;;
25175;SDS011;13135;55.166;61.286;2023-07-02T03:14:09;4.95;;;2.60;;
25175;SDS011;13135;55.166;61.286;2023-07-02T03:16:54;3.45;;;2.42;;
25175;SDS011;13135;55.166;61.286;2023-07-02T03:19:39;4.40;;;2.75;;
25175;SDS011;13135;55.166;61.286;2023-07-02T03:22:29;7.10;;;4.35;;
25175;SDS011;13135;55.166;61.286;2023-07-02T03:25:14;6.45;;;2.87;;
25175;SDS011;13135;55.166;61.286;2023-07-02T03:27:59;6.87;;;2.80;;
25175;SDS011;13135;55.166;61.286;2023-07-02T03:30:43;5.97;;;2.90;;
25175;SDS011;13135;55.166;61.286;2023-07-02T03:33:28;5.62;;;3.00;;
25175;SDS011;13135;55.166;61.286;2023-07-02T03:36:12;5.30;;;2.85;;
25175;SDS011;13135;55.166;61.286;2023-07-02T03:38:57;6.75;;;2.95;;
25175;SDS011;13135;55.166;61.286;2023-07-02T03:41:41;3.70;;;2.60;;
25175;SDS011;13135;55.166;61.286;2023-07-02T03:44:25;3.50;;;2.60;;
25175;SDS011;13135;55.166;61.286;2023-07-02T03:47:11;4.05;;;2.55;;
25175;SDS011;13135;55.166;61.286;2023-07-02T03:49:58;5.87;;;2.53;;
25175;SDS011;13135;55.166;61.286;2023-07-02T03:52:43;5.75;;;2.78;;
25175;SDS011;13135;55.166;61.286;2023-07-02T03:55:24;6.72;;;2.70;;
25175;SDS011;13135;55.166;61.286;2023-07-02T03:58:11;7.28;;;3.72;;
25175;SDS011;13135;55.166;61.286;2023-07-02T04:00:55;6.87;;;3.37;;
25175;SDS011;13135;55.166;61.286;2023-07-02T04:03:41;6.43;;;2.70;;
25175;SDS011;13135;55.166;61.286;2023-07-02T04:06:27;7.53;;;2.95;;
25175;SDS011;13135;55.166;61.286;2023-07-02T04:09:10;7.57;;;3.00;;
25175;SDS011;13135;55.166;61.286;2023-07-02T04:11:54;5.10;;;2.80;;
25175;SDS011;13135;55.166;61.286;2023-07-02T04:14:39;8.02;;;2.75;;
25175;SDS011;13135;55.166;61.286;2023-07-02T04:17:24;5.68;;;3.08;;
25175;SDS011;13135;55.166;61.286;2023-07-02T04:20:09;6.45;;;3.20;;
25175;SDS011;13135;55.166;61.286;2023-07-02T04:22:55;7.40;;;2.90;;
25175;SDS011;13135;55.166;61.286;2023-07-02T04:25:40;5.55;;;2.95;;
25175;SDS011;13135;55.166;61.286;2023-07-02T04:28:25;6.28;;;2.70;;
25175;SDS011;13135;55.166;61.286;2023-07-02T04:31:12;5.90;;;2.90;;
25175;SDS011;13135;55.166;61.286;2023-07-02T04:33:58;7.45;;;2.70;;
25175;SDS011;13135;55.166;61.286;2023-07-02T04:36:43;7.65;;;2.67;;
25175;SDS011;13135;55.166;61.286;2023-07-02T04:39:30;5.78;;;2.97;;
25175;SDS011;13135;55.166;61.286;2023-07-02T04:42:15;6.70;;;2.83;;
25175;SDS011;13135;55.166;61.286;2023-07-02T04:45:01;8.18;;;3.28;;
25175;SDS011;13135;55.166;61.286;2023-07-02T04:47:46;5.37;;;2.67;;
25175;SDS011;13135;55.166;61.286;2023-07-02T04:50:31;6.20;;;3.10;;
25175;SDS011;13135;55.166;61.286;2023-07-02T04:53:16;6.37;;;3.28;;
25175;SDS011;13135;55.166;61.286;2023-07-02T04:56:01;8.40;;;3.30;;
25175;SDS011;13135;55.166;61.286;2023-07-02T04:58:45;6.25;;;3.33;;
25175;SDS011;13135;55.166;61.286;2023-07-02T05:01:30;5.65;;;2.80;;
25175;SDS011;13135;55.166;61.286;2023-07-02T05:04:15;8.10;;;3.30;;
25175;SDS011;13135;55.166;61.286;2023-07-02T05:06:56;7.75;;;3.22;;
25175;SDS011;13135;55.166;61.286;2023-07-02T05:09:43;13.35;;;2.95;;
25175;SDS011;13135;55.166;61.286;2023-07-02T05:12:27;4.30;;;2.90;;
25175;SDS011;13135;55.166;61.286;2023-07-02T05:15:12;7.87;;;3.20;;
25175;SDS011;13135;55.166;61.286;2023-07-02T05:17:57;6.32;;;3.12;;
25175;SDS011;13135;55.166;61.286;2023-07-02T05:20:41;8.15;;;2.90;;
25175;SDS011;13135;55.166;61.286;2023-07-02T05:23:25;8.20;;;2.97;;
25175;SDS011;13135;55.166;61.286;2023-07-02T05:26:10;6.32;;;3.50;;
25175;SDS011;13135;55.166;61.286;2023-07-02T05:28:55;6.10;;;2.85;;
25175;SDS011;13135;55.166;61.286;2023-07-02T05:31:40;7.55;;;2.60;;
25175;SDS011;13135;55.166;61.286;2023-07-02T05:34:27;6.18;;;2.78;;
25175;SDS011;13135;55.166;61.286;2023-07-02T05:37:12;10.10;;;3.30;;
25175;SDS011;13135;55.166;61.286;2023-07-02T05:39:55;7.10;;;3.00;;
25175;SDS011;13135;55.166;61.286;2023-07-02T05:42:36;8.00;;;2.90;;
25175;SDS011;13135;55.166;61.286;2023-07-02T05:45:22;6.93;;;3.30;;
25175;SDS011;13135;55.166;61.286;2023-07-02T05:48:09;7.37;;;3.10;;
25175;SDS011;13135;55.166;61.286;2023-07-02T05:50:56;4.75;;;2.62;;
25175;SDS011;13135;55.166;61.286;2023-07-02T05:53:38;9.30;;;3.08;;
25175;SDS011;13135;55.166;61.286;2023-07-02T05:56:23;10.18;;;3.20;;
25175;SDS011;13135;55.166;61.286;2023-07-02T05:59:04;7.47;;;2.70;;
25175;SDS011;13135;55.166;61.286;2023-07-02T06:01:49;6.80;;;2.97;;
25175;SDS011;13135;55.166;61.286;2023-07-02T06:04:34;8.35;;;3.25;;
25175;SDS011;13135;55.166;61.286;2023-07-02T06:07:19;8.75;;;3.08;;
25175;SDS011;13135;55.166;61.286;2023-07-02T06:10:06;6.75;;;3.25;;
25175;SDS011;13135;55.166;61.286;2023-07-02T06:12:51;9.00;;;3.28;;
25175;SDS011;13135;55.166;61.286;2023-07-02T06:15:36;7.75;;;2.58;;
25175;SDS011;13135;55.166;61.286;2023-07-02T06:18:22;7.47;;;2.70;;
25175;SDS011;13135;55.166;61.286;2023-07-02T06:21:07;6.55;;;2.80;;
25175;SDS011;13135;55.166;61.286;2023-07-02T06:23:54;8.25;;;3.08;;
25175;SDS011;13135;55.166;61.286;2023-07-02T06:26:41;8.55;;;2.85;;
25175;SDS011;13135;55.166;61.286;2023-07-02T06:29:25;8.43;;;2.97;;
25175;SDS011;13135;55.166;61.286;2023-07-02T06:32:10;5.62;;;2.97;;
25175;SDS011;13135;55.166;61.286;2023-07-02T06:34:55;10.07;;;2.72;;
25175;SDS011;13135;55.166;61.286;2023-07-02T06:37:39;6.75;;;3.00;;
25175;SDS011;13135;55.166;61.286;2023-07-02T06:40:24;8.48;;;2.65;;
25175;SDS011;13135;55.166;61.286;2023-07-02T06:43:09;9.95;;;2.80;;
25175;SDS011;13135;55.166;61.286;2023-07-02T06:45:54;7.95;;;2.50;;
25175;SDS011;13135;55.166;61.286;2023-07-02T06:48:41;8.15;;;2.78;;
25175;SDS011;13135;55.166;61.286;2023-07-02T06:51:25;8.30;;;2.72;;
25175;SDS011;13135;55.166;61.286;2023-07-02T06:54:11;8.43;;;2.85;;
25175;SDS011;13135;55.166;61.286;2023-07-02T06:56:56;9.38;;;3.40;;
25175;SDS011;13135;55.166;61.286;2023-07-02T06:59:43;6.50;;;2.70;;
25175;SDS011;13135;55.166;61.286;2023-07-02T07:02:28;10.38;;;2.53;;
25175;SDS011;13135;55.166;61.286;2023-07-02T07:05:15;8.05;;;2.70;;
25175;SDS011;13135;55.166;61.286;2023-07-02T07:07:57;9.07;;;2.80;;
25175;SDS011;13135;55.166;61.286;2023-07-02T07:10:44;11.95;;;2.80;;
25175;SDS011;13135;55.166;61.286;2023-07-02T07:13:31;7.53;;;2.62;;
25175;SDS011;13135;55.166;61.286;2023-07-02T07:16:16;7.72;;;2.65;;
25175;SDS011;13135;55.166;61.286;2023-07-02T07:18:58;8.27;;;2.65;;
25175;SDS011;13135;55.166;61.286;2023-07-02T07:21:45;7.80;;;2.40;;
25175;SDS011;13135;55.166;61.286;2023-07-02T07:24:29;7.72;;;2.65;;
25175;SDS011;13135;55.166;61.286;2023-07-02T07:27:14;7.62;;;2.80;;
25175;SDS011;13135;55.166;61.286;2023-07-02T07:30:01;9.75;;;2.58;;
25175;SDS011;13135;55.166;61.286;2023-07-02T07:32:46;7.45;;;2.55;;
25175;SDS011;13135;55.166;61.286;2023-07-02T07:35:31;10.98;;;2.95;;
25175;SDS011;13135;55.166;61.286;2023-07-02T07:38:16;11.18;;;3.20;;
25175;SDS011;13135;55.166;61.286;2023-07-02T07:41:00;5.37;;;2.65;;
25175;SDS011;13135;55.166;61.286;2023-07-02T07:43:53;5.35;;;2.80;;
25175;SDS011;13135;55.166;61.286;2023-07-02T07:46:44;7.20;;;2.67;;
25175;SDS011;13135;55.166;61.286;2023-07-02T07:49:29;8.25;;;2.45;;
25175;SDS011;13135;55.166;61.286;2023-07-02T07:52:15;7.20;;;2.85;;
25175;SDS011;13135;55.166;61.286;2023-07-02T07:55:02;8.27;;;2.58;;
25175;SDS011;13135;55.166;61.286;2023-07-02T07:57:47;5.97;;;2.50;;
25175;SDS011;13135;55.166;61.286;2023-07-02T08:00:34;8.13;;;2.80;;
25175;SDS011;13135;55.166;61.286;2023-07-02T08:03:20;7.85;;;2.65;;
25175;SDS011;13135;55.166;61.286;2023-07-02T08:06:06;9.35;;;3.17;;
25175;SDS011;13135;55.166;61.286;2023-07-02T08:08:53;7.78;;;2.72;;
25175;SDS011;13135;55.166;61.286;2023-07-02T08:11:40;6.85;;;2.85;;
25175;SDS011;13135;55.166;61.286;2023-07-02T08:14:27;7.57;;;2.85;;
25175;SDS011;13135;55.166;61.286;2023-07-02T08:17:10;7.55;;;2.70;;
25175;SDS011;13135;55.166;61.286;2023-07-02T08:19:54;8.25;;;2.78;;
25175;SDS011;13135;55.166;61.286;2023-07-02T08:22:41;6.65;;;2.72;;
25175;SDS011;13135;55.166;61.286;2023-07-02T08:25:28;10.57;;;3.83;;
25175;SDS011;13135;55.166;61.286;2023-07-02T08:28:13;5.75;;;2.33;;
25175;SDS011;13135;55.166;61.286;2023-07-02T08:31:00;6.97;;;2.62;;
25175;SDS011;13135;55.166;61.286;2023-07-02T08:33:44;14.70;;;3.10;;
25175;SDS011;13135;55.166;61.286;2023-07-02T08:36:32;6.47;;;2.78;;
25175;SDS011;13135;55.166;61.286;2023-07-02T08:39:17;8.48;;;2.67;;
25175;SDS011;13135;55.166;61.286;2023-07-02T08:42:04;8.70;;;3.05;;
25175;SDS011;13135;55.166;61.286;2023-07-02T08:44:53;6.75;;;2.60;;
25175;SDS011;13135;55.166;61.286;2023-07-02T08:47:43;5.95;;;2.83;;
25175;SDS011;13135;55.166;61.286;2023-07-02T08:50:30;8.38;;;2.80;;
25175;SDS011;13135;55.166;61.286;2023-07-02T08:53:12;6.45;;;2.60;;
25175;SDS011;13135;55.166;61.286;2023-07-02T08:55:56;7.72;;;2.72;;
25175;SDS011;13135;55.166;61.286;2023-07-02T08:58:41;8.10;;;3.00;;
25175;SDS011;13135;55.166;61.286;2023-07-02T09:01:27;8.45;;;2.55;;
25175;SDS011;13135;55.166;61.286;2023-07-02T09:04:16;9.20;;;3.25;;
25175;SDS011;13135;55.166;61.286;2023-07-02T09:07:08;7.68;;;2.80;;
25175;SDS011;13135;55.166;61.286;2023-07-02T09:09:53;9.73;;;3.05;;
25175;SDS011;13135;55.166;61.286;2023-07-02T09:12:38;6.87;;;3.22;;
25175;SDS011;13135;55.166;61.286;2023-07-02T09:15:22;6.90;;;2.85;;
25175;SDS011;13135;55.166;61.286;2023-07-02T09:20:58;8.13;;;3.25;;
25175;SDS011;13135;55.166;61.286;2023-07-02T09:23:44;8.18;;;3.25;;
25175;SDS011;13135;55.166;61.286;2023-07-02T09:26:30;7.35;;;2.90;;
25175;SDS011;13135;55.166;61.286;2023-07-02T09:29:11;9.77;;;2.80;;
25175;SDS011;13135;55.166;61.286;2023-07-02T09:31:55;6.68;;;2.72;;
25175;SDS011;13135;55.166;61.286;2023-07-02T09:34:41;7.20;;;2.75;;
25175;SDS011;13135;55.166;61.286;2023-07-02T09:37:26;8.75;;;2.92;;
25175;SDS011;13135;55.166;61.286;2023-07-02T09:40:10;10.57;;;2.62;;
25175;SDS011;13135;55.166;61.286;2023-07-02T09:42:55;8.25;;;3.25;;
25175;SDS011;13135;55.166;61.286;2023-07-02T09:45:43;8.75;;;3.20;;
25175;SDS011;13135;55.166;61.286;2023-07-02T09:48:27;9.13;;;3.03;;
25175;SDS011;13135;55.166;61.286;2023-07-02T09:51:12;7.95;;;3.03;;
25175;SDS011;13135;55.166;61.286;2023-07-02T09:53:59;11.48;;;3.08;;
25175;SDS011;13135;55.166;61.286;2023-07-02T09:56:43;10.65;;;3.15;;
25175;SDS011;13135;55.166;61.286;2023-07-02T09:59:28;7.47;;;2.92;;
25175;SDS011;13135;55.166;61.286;2023-07-02T10:02:12;11.45;;;3.40;;
25175;SDS011;13135;55.166;61.286;2023-07-02T10:04:56;6.55;;;2.85;;
25175;SDS011;13135;55.166;61.286;2023-07-02T10:07:41;6.57;;;3.00;;
25175;SDS011;13135;55.166;61.286;2023-07-02T10:10:28;9.18;;;2.60;;
25175;SDS011;13135;55.166;61.286;2023-07-02T10:13:14;7.05;;;2.90;;
25175;SDS011;13135;55.166;61.286;2023-07-02T10:16:02;8.35;;;2.78;;
25175;SDS011;13135;55.166;61.286;2023-07-02T10:18:47;10.20;;;3.40;;
25175;SDS011;13135;55.166;61.286;2023-07-02T10:21:34;7.30;;;3.12;;
25175;SDS011;13135;55.166;61.286;2023-07-02T10:24:20;9.75;;;4.12;;
25175;SDS011;13135;55.166;61.286;2023-07-02T10:27:04;6.80;;;3.08;;
25175;SDS011;13135;55.166;61.286;2023-07-02T10:29:50;10.50;;;3.50;;
25175;SDS011;13135;55.166;61.286;2023-07-02T10:32:35;8.60;;;3.47;;
25175;SDS011;13135;55.166;61.286;2023-07-02T10:35:19;9.38;;;3.80;;
25175;SDS011;13135;55.166;61.286;2023-07-02T10:38:04;10.85;;;3.10;;
25175;SDS011;13135;55.166;61.286;2023-07-02T10:40:55;7.72;;;3.33;;
25175;SDS011;13135;55.166;61.286;2023-07-02T10:43:40;8.38;;;3.37;;
25175;SDS011;13135;55.166;61.286;2023-07-02T10:46:24;10.15;;;3.45;;
25175;SDS011;13135;55.166;61.286;2023-07-02T10:49:09;12.65;;;5.18;;
25175;SDS011;13135;55.166;61.286;2023-07-02T10:51:59;14.07;;;5.57;;
25175;SDS011;13135;55.166;61.286;2023-07-02T10:54:44;9.15;;;3.50;;
25175;SDS011;13135;55.166;61.286;2023-07-02T10:57:28;11.20;;;3.70;;
25175;SDS011;13135;55.166;61.286;2023-07-02T11:00:13;16.42;;;6.37;;
25175;SDS011;13135;55.166;61.286;2023-07-02T11:02:58;12.98;;;4.25;;
25175;SDS011;13135;55.166;61.286;2023-07-02T11:05:43;11.80;;;4.80;;
25175;SDS011;13135;55.166;61.286;2023-07-02T11:08:34;12.88;;;4.43;;
25175;SDS011;13135;55.166;61.286;2023-07-02T11:11:10;11.68;;;3.92;;
25175;SDS011;13135;55.166;61.286;2023-07-02T11:13:55;9.52;;;3.90;;
25175;SDS011;13135;55.166;61.286;2023-07-02T11:16:39;8.63;;;3.60;;
25175;SDS011;13135;55.166;61.286;2023-07-02T11:19:24;12.75;;;3.53;;
25175;SDS011;13135;55.166;61.286;2023-07-02T11:22:08;7.68;;;3.67;;
25175;SDS011;13135;55.166;61.286;2023-07-02T11:24:52;12.45;;;3.58;;
25175;SDS011;13135;55.166;61.286;2023-07-02T11:27:36;15.02;;;3.58;;
25175;SDS011;13135;55.166;61.286;2023-07-02T11:30:22;9.70;;;3.72;;
25175;SDS011;13135;55.166;61.286;2023-07-02T11:33:09;9.77;;;3.37;;
25175;SDS011;13135;55.166;61.286;2023-07-02T11:35:56;12.10;;;3.37;;
25175;SDS011;13135;55.166;61.286;2023-07-02T11:38:43;9.27;;;3.97;;
25175;SDS011;13135;55.166;61.286;2023-07-02T11:41:36;10.25;;;3.50;;
25175;SDS011;13135;55.166;61.286;2023-07-02T11:44:21;5.87;;;3.10;;
25175;SDS011;13135;55.166;61.286;2023-07-02T11:47:07;7.15;;;3.05;;
25175;SDS011;13135;55.166;61.286;2023-07-02T11:49:51;12.15;;;3.17;;
25175;SDS011;13135;55.166;61.286;2023-07-02T11:52:36;11.60;;;3.17;;
25175;SDS011;13135;55.166;61.286;2023-07-02T11:55:17;13.23;;;3.15;;
25175;SDS011;13135;55.166;61.286;2023-07-02T11:58:02;10.15;;;3.60;;
25175;SDS011;13135;55.166;61.286;2023-07-02T12:00:49;15.00;;;3.47;;
25175;SDS011;13135;55.166;61.286;2023-07-02T12:03:34;9.02;;;3.60;;
25175;SDS011;13135;55.166;61.286;2023-07-02T12:06:19;10.25;;;3.12;;
25175;SDS011;13135;55.166;61.286;2023-07-02T12:09:05;13.25;;;4.00;;
25175;SDS011;13135;55.166;61.286;2023-07-02T12:11:50;9.90;;;3.55;;
25175;SDS011;13135;55.166;61.286;2023-07-02T12:14:35;9.77;;;4.07;;
25175;SDS011;13135;55.166;61.286;2023-07-02T12:17:19;10.73;;;3.53;;
25175;SDS011;13135;55.166;61.286;2023-07-02T12:20:05;8.98;;;3.50;;
25175;SDS011;13135;55.166;61.286;2023-07-02T12:22:50;13.73;;;4.60;;
25175;SDS011;13135;55.166;61.286;2023-07-02T12:25:35;12.90;;;4.57;;
25175;SDS011;13135;55.166;61.286;2023-07-02T12:28:20;12.02;;;3.97;;
25175;SDS011;13135;55.166;61.286;2023-07-02T12:31:04;8.52;;;4.00;;
25175;SDS011;13135;55.166;61.286;2023-07-02T12:33:50;10.35;;;3.53;;
25175;SDS011;13135;55.166;61.286;2023-07-02T12:36:34;8.75;;;3.75;;
25175;SDS011;13135;55.166;61.286;2023-07-02T12:39:18;12.93;;;3.53;;
25175;SDS011;13135;55.166;61.286;2023-07-02T12:42:03;7.80;;;3.55;;
25175;SDS011;13135;55.166;61.286;2023-07-02T12:44:48;11.98;;;3.47;;
25175;SDS011;13135;55.166;61.286;2023-07-02T12:47:33;10.95;;;3.40;;
25175;SDS011;13135;55.166;61.286;2023-07-02T12:50:20;8.52;;;3.25;;
25175;SDS011;13135;55.166;61.286;2023-07-02T12:53:05;9.80;;;3.40;;
25175;SDS011;13135;55.166;61.286;2023-07-02T12:55:50;8.40;;;3.85;;
25175;SDS011;13135;55.166;61.286;2023-07-02T12:58:35;11.12;;;3.55;;
25175;SDS011;13135;55.166;61.286;2023-07-02T13:01:22;7.62;;;3.80;;
25175;SDS011;13135;55.166;61.286;2023-07-02T13:04:08;12.55;;;4.03;;
25175;SDS011;13135;55.166;61.286;2023-07-02T13:06:53;8.60;;;3.80;;
25175;SDS011;13135;55.166;61.286;2023-07-02T13:09:38;10.63;;;3.35;;
25175;SDS011;13135;55.166;61.286;2023-07-02T13:12:23;11.82;;;3.67;;
25175;SDS011;13135;55.166;61.286;2023-07-02T13:15:07;7.10;;;2.90;;
25175;SDS011;13135;55.166;61.286;2023-07-02T13:17:55;10.20;;;3.53;;
25175;SDS011;13135;55.166;61.286;2023-07-02T13:20:40;9.02;;;3.60;;
25175;SDS011;13135;55.166;61.286;2023-07-02T13:23:26;11.25;;;5.32;;
25175;SDS011;13135;55.166;61.286;2023-07-02T13:26:09;11.95;;;3.60;;
25175;SDS011;13135;55.166;61.286;2023-07-02T13:28:54;10.35;;;3.62;;
25175;SDS011;13135;55.166;61.286;2023-07-02T13:31:39;10.23;;;3.62;;
25175;SDS011;13135;55.166;61.286;2023-07-02T13:34:25;12.40;;;3.40;;
25175;SDS011;13135;55.166;61.286;2023-07-02T13:37:10;13.35;;;4.22;;
25175;SDS011;13135;55.166;61.286;2023-07-02T13:39:55;11.85;;;3.90;;
25175;SDS011;13135;55.166;61.286;2023-07-02T13:42:42;10.32;;;3.87;;
25175;SDS011;13135;55.166;61.286;2023-07-02T13:45:27;9.65;;;4.72;;
25175;SDS011;13135;55.166;61.286;2023-07-02T13:48:12;12.07;;;4.53;;
25175;SDS011;13135;55.166;61.286;2023-07-02T13:50:56;10.27;;;4.30;;
25175;SDS011;13135;55.166;61.286;2023-07-02T13:53:41;11.43;;;4.93;;
25175;SDS011;13135;55.166;61.286;2023-07-02T13:56:26;11.60;;;4.93;;
25175;SDS011;13135;55.166;61.286;2023-07-02T13:59:13;11.37;;;4.77;;
25175;SDS011;13135;55.166;61.286;2023-07-02T14:01:54;10.53;;;4.90;;
25175;SDS011;13135;55.166;61.286;2023-07-02T14:04:39;10.63;;;4.27;;
25175;SDS011;13135;55.166;61.286;2023-07-02T14:07:24;11.60;;;5.93;;
25175;SDS011;13135;55.166;61.286;2023-07-02T14:10:09;8.43;;;4.00;;
25175;SDS011;13135;55.166;61.286;2023-07-02T14:12:54;8.40;;;4.30;;
25175;SDS011;13135;55.166;61.286;2023-07-02T14:15:39;19.37;;;4.70;;
25175;SDS011;13135;55.166;61.286;2023-07-02T14:18:23;10.17;;;4.30;;
25175;SDS011;13135;55.166;61.286;2023-07-02T14:21:06;12.53;;;4.37;;
25175;SDS011;13135;55.166;61.286;2023-07-02T14:23:51;10.43;;;4.60;;
25175;SDS011;13135;55.166;61.286;2023-07-02T14:26:37;8.57;;;4.77;;
25175;SDS011;13135;55.166;61.286;2023-07-02T14:29:24;9.13;;;4.30;;
25175;SDS011;13135;55.166;61.286;2023-07-02T14:32:09;13.43;;;4.93;;
25175;SDS011;13135;55.166;61.286;2023-07-02T14:34:53;8.13;;;4.20;;
25175;SDS011;13135;55.166;61.286;2023-07-02T14:37:38;10.33;;;4.70;;
25175;SDS011;13135;55.166;61.286;2023-07-02T14:40:23;12.23;;;4.53;;
25175;SDS011;13135;55.166;61.286;2023-07-02T14:43:08;13.25;;;5.78;;
25175;SDS011;13135;55.166;61.286;2023-07-02T14:45:54;13.18;;;6.80;;
25175;SDS011;13135;55.166;61.286;2023-07-02T14:48:38;14.60;;;6.22;;
25175;SDS011;13135;55.166;61.286;2023-07-02T14:51:22;16.35;;;10.00;;
25175;SDS011;13135;55.166;61.286;2023-07-02T14:54:06;16.37;;;6.68;;
25175;SDS011;13135;55.166;61.286;2023-07-02T14:56:53;20.80;;;10.65;;
25175;SDS011;13135;55.166;61.286;2023-07-02T14:59:38;17.12;;;9.88;;
25175;SDS011;13135;55.166;61.286;2023-07-02T15:02:23;15.52;;;8.50;;
25175;SDS011;13135;55.166;61.286;2023-07-02T15:05:10;11.60;;;5.57;;
25175;SDS011;13135;55.166;61.286;2023-07-02T15:07:55;12.13;;;6.00;;
25175;SDS011;13135;55.166;61.286;2023-07-02T15:10:39;16.70;;;8.18;;
25175;SDS011;13135;55.166;61.286;2023-07-02T15:13:24;13.03;;;5.97;;
25175;SDS011;13135;55.166;61.286;2023-07-02T15:16:10;9.70;;;5.20;;
25175;SDS011;13135;55.166;61.286;2023-07-02T15:18:54;14.00;;;6.05;;
25175;SDS011;13135;55.166;61.286;2023-07-02T15:21:39;11.88;;;5.55;;
25175;SDS011;13135;55.166;61.286;2023-07-02T15:24:24;14.17;;;5.97;;
25175;SDS011;13135;55.166;61.286;2023-07-02T15:27:11;15.70;;;6.30;;
25175;SDS011;13135;55.166;61.286;2023-07-02T15:29:56;12.77;;;6.90;;
25175;SDS011;13135;55.166;61.286;2023-07-02T15:32:41;13.88;;;6.93;;
25175;SDS011;13135;55.166;61.286;2023-07-02T15:35:25;12.43;;;6.10;;
25175;SDS011;13135;55.166;61.286;2023-07-02T15:38:10;15.93;;;6.35;;
25175;SDS011;13135;55.166;61.286;2023-07-02T15:43:48;11.75;;;6.22;;
25175;SDS011;13135;55.166;61.286;2023-07-02T15:46:34;15.25;;;7.82;;
25175;SDS011;13135;55.166;61.286;2023-07-02T15:49:18;14.55;;;6.50;;
25175;SDS011;13135;55.166;61.286;2023-07-02T15:52:04;13.73;;;6.50;;
25175;SDS011;13135;55.166;61.286;2023-07-02T15:54:50;15.40;;;6.40;;
25175;SDS011;13135;55.166;61.286;2023-07-02T15:57:34;12.32;;;6.78;;
25175;SDS011;13135;55.166;61.286;2023-07-02T16:00:18;28.53;;;21.90;;
25175;SDS011;13135;55.166;61.286;2023-07-02T16:03:03;26.27;;;18.65;;
25175;SDS011;13135;55.166;61.286;2023-07-02T16:05:48;24.60;;;13.98;;
25175;SDS011;13135;55.166;61.286;2023-07-02T16:08:33;26.02;;;16.02;;
25175;SDS011;13135;55.166;61.286;2023-07-02T16:11:20;19.85;;;12.40;;
25175;SDS011;13135;55.166;61.286;2023-07-02T16:14:05;19.52;;;7.65;;
25175;SDS011;13135;55.166;61.286;2023-07-02T16:16:50;15.50;;;7.35;;
25175;SDS011;13135;55.166;61.286;2023-07-02T16:19:35;15.63;;;7.60;;
25175;SDS011;13135;55.166;61.286;2023-07-02T16:22:20;34.77;;;22.70;;